SKUI/UIB METAR and TAF weather

Enter ICAO airport designator
Station Type Date Time Source
SKUI METAR 2020/09/21 00:00 UTC NOAA

SKUI 210000Z 26005KT 9999 VCSH FEW012CB BKN020 26/24 A2980 RMK CB VCSH/E


Station Type Date Time Source
SKUI Decoded METAR 2020/09/21 00:00 UTC NOAA

Quibdo / El Carano, Colombia (SKUI) 05-43N 076-37W
Sep 20, 2020 - 08:00 PM EDT / 2020.09.21 0000 UTC
Wind: from the W (260 degrees) at 6 MPH (5 KT):0
Visibility: greater than 7 mile(s):0
Sky conditions: mostly cloudy
Weather: showers in the vicinity; Cumulonimbus clouds observed
Temperature: 78 F (26 C)
Dew Point: 75 F (24 C)
Relative Humidity: 88%
Pressure (altimeter): 29.8 in. Hg (1009 hPa)
ob: SKUI 210000Z 26005KT 9999 VCSH FEW012CB BKN020 26/24 A2980 RMK CB VCSH/E
cycle: 0

Station Type Date Time Source
SKUI TAF UTC NOAA

Error!

Example: see airport list